SAS930 KATL-EKCH
Flight info
| Callsign | SAS930 |
|---|---|
| Flight time | N/A |
| Altitude | 37000 |
| Route | SMKEY2 BOBBD Q71 PSB DCT HNK DCT TOPPS N635A RIKAL/M079F370 NATS NETKI/N0458F370 DCT NIBOG DCT MAC DCT SURAT DCT PETIL DCT TESPI |
| Aircraft | A333/H-SDE1E3FGHIJ3J4J5M1P2RWXYZ/LB1D |
Departure
| Time | 2026-05-08 01:59 |
|---|---|
| Airport | Hartsfield Jackson Atlanta International Airport (KATL) |
Arrival
| Time | N/A |
|---|---|
| Airport | Copenhagen Kastrup Airport (EKCH) |
| Time | Latitude | Longitude | Altitude | Speed | Heading |
|---|---|---|---|---|---|
| 2026-05-08 01:28 | 33.63799 | -84.42056 | 1010 ft | 0 kts | 89° |
| 2026-05-08 01:48 | 33.63800 | -84.42102 | 1010 ft | 4 kts | 103° |
| 2026-05-08 01:48 | 33.63810 | -84.42131 | 1010 ft | 4 kts | 135° |
| 2026-05-08 01:48 | 33.63831 | -84.42145 | 1010 ft | 3 kts | 178° |
| 2026-05-08 01:48 | 33.63835 | -84.42146 | 1010 ft | 1 kts | 180° |
| 2026-05-08 01:51 | 33.63834 | -84.42146 | 1010 ft | 1 kts | 180° |
| 2026-05-08 01:52 | 33.63806 | -84.42146 | 1010 ft | 7 kts | 180° |
| 2026-05-08 01:52 | 33.63734 | -84.42146 | 1010 ft | 13 kts | 180° |
| 2026-05-08 01:52 | 33.63662 | -84.42185 | 1010 ft | 10 kts | 251° |
| 2026-05-08 01:52 | 33.63699 | -84.42230 | 1010 ft | 9 kts | 348° |
| 2026-05-08 01:53 | 33.63781 | -84.42233 | 1010 ft | 14 kts | 358° |
| 2026-05-08 01:53 | 33.63887 | -84.42240 | 1010 ft | 16 kts | 358° |
| 2026-05-08 01:53 | 33.64002 | -84.42240 | 1010 ft | 17 kts | 1° |
| 2026-05-08 01:53 | 33.64120 | -84.42240 | 1010 ft | 17 kts | 359° |
| 2026-05-08 01:54 | 33.64244 | -84.42239 | 1010 ft | 18 kts | 3° |
| 2026-05-08 01:54 | 33.64369 | -84.42234 | 1010 ft | 19 kts | 360° |
| 2026-05-08 01:54 | 33.64491 | -84.42205 | 1010 ft | 18 kts | 41° |
| 2026-05-08 01:54 | 33.64542 | -84.42063 | 1010 ft | 19 kts | 86° |
| 2026-05-08 01:55 | 33.64542 | -84.41898 | 1010 ft | 20 kts | 90° |
| 2026-05-08 01:55 | 33.64543 | -84.41724 | 1010 ft | 21 kts | 90° |
| 2026-05-08 01:55 | 33.64543 | -84.41547 | 1010 ft | 22 kts | 90° |
| 2026-05-08 01:55 | 33.64543 | -84.41361 | 1010 ft | 23 kts | 90° |
| 2026-05-08 01:56 | 33.64543 | -84.41166 | 1010 ft | 24 kts | 90° |
| 2026-05-08 01:56 | 33.64543 | -84.40968 | 1010 ft | 24 kts | 90° |
| 2026-05-08 01:56 | 33.64561 | -84.40784 | 1009 ft | 22 kts | 76° |
| 2026-05-08 01:56 | 33.64570 | -84.40645 | 1009 ft | 8 kts | 90° |
| 2026-05-08 01:57 | 33.64578 | -84.40592 | 1009 ft | 6 kts | 58° |
| 2026-05-08 01:57 | 33.64625 | -84.40570 | 1008 ft | 10 kts | 8° |
| 2026-05-08 01:57 | 33.64678 | -84.40620 | 1007 ft | 11 kts | 283° |
| 2026-05-08 01:57 | 33.64680 | -84.40722 | 1008 ft | 19 kts | 270° |
| 2026-05-08 01:58 | 33.64680 | -84.41078 | 1010 ft | 68 kts | 270° |
| 2026-05-08 01:58 | 33.64679 | -84.41835 | 1011 ft | 114 kts | 270° |
| 2026-05-08 01:58 | 33.64677 | -84.42960 | 1012 ft | 155 kts | 269° |
| 2026-05-08 01:58 | 33.64676 | -84.44325 | 1377 ft | 164 kts | 275° |
| 2026-05-08 01:59 | 33.64837 | -84.45724 | 1730 ft | 180 kts | 284° |
| 2026-05-08 01:59 | 33.65177 | -84.47130 | 2514 ft | 168 kts | 290° |
| 2026-05-08 01:59 | 33.65601 | -84.48441 | 3050 ft | 173 kts | 295° |
| 2026-05-08 01:59 | 33.66123 | -84.49824 | 3329 ft | 190 kts | 294° |
| 2026-05-08 02:00 | 33.66705 | -84.51338 | 3561 ft | 210 kts | 294° |
| 2026-05-08 02:00 | 33.67341 | -84.52998 | 3824 ft | 226 kts | 294° |
| 2026-05-08 02:00 | 33.68016 | -84.54780 | 4094 ft | 242 kts | 294° |
| 2026-05-08 02:00 | 33.68552 | -84.55998 | 4424 ft | 247 kts | 302° |
| 2026-05-08 02:01 | 33.69762 | -84.57482 | 5026 ft | 254 kts | 325° |
| 2026-05-08 02:01 | 33.71445 | -84.58184 | 5643 ft | 262 kts | 349° |
| 2026-05-08 02:01 | 33.73263 | -84.58266 | 6267 ft | 268 kts | 356° |
| 2026-05-08 02:01 | 33.75165 | -84.58220 | 6871 ft | 272 kts | 356° |
| 2026-05-08 02:02 | 33.77071 | -84.58167 | 7455 ft | 276 kts | 355° |
| 2026-05-08 02:02 | 33.78972 | -84.58124 | 8050 ft | 279 kts | 355° |
| 2026-05-08 02:02 | 33.80931 | -84.57912 | 8656 ft | 289 kts | 8° |
| 2026-05-08 02:02 | 33.82835 | -84.57009 | 9226 ft | 300 kts | 21° |
| 2026-05-08 02:03 | 33.84685 | -84.55803 | 9761 ft | 306 kts | 23° |
| 2026-05-08 02:03 | 33.86585 | -84.54514 | 10234 ft | 315 kts | 23° |
| 2026-05-08 02:03 | 33.88540 | -84.53193 | 10474 ft | 331 kts | 22° |
| 2026-05-08 02:03 | 33.90602 | -84.51812 | 10698 ft | 347 kts | 22° |
| 2026-05-08 02:04 | 33.92757 | -84.50373 | 10905 ft | 363 kts | 22° |
| 2026-05-08 02:04 | 33.95014 | -84.48866 | 11119 ft | 378 kts | 22° |
| 2026-05-08 02:04 | 33.97350 | -84.47305 | 11401 ft | 389 kts | 22° |
| 2026-05-08 02:04 | 33.99732 | -84.45707 | 11883 ft | 394 kts | 22° |
| 2026-05-08 02:05 | 34.02134 | -84.44096 | 12453 ft | 397 kts | 22° |
| 2026-05-08 02:05 | 34.04559 | -84.42471 | 12964 ft | 401 kts | 22° |
| 2026-05-08 02:05 | 34.07013 | -84.40830 | 13449 ft | 405 kts | 21° |
| 2026-05-08 02:05 | 34.09493 | -84.39170 | 13930 ft | 410 kts | 21° |
| 2026-05-08 02:06 | 34.12002 | -84.37491 | 14386 ft | 414 kts | 20° |
| 2026-05-08 02:06 | 34.14533 | -84.35795 | 14850 ft | 418 kts | 20° |
| 2026-05-08 02:06 | 34.17083 | -84.34084 | 15326 ft | 422 kts | 20° |
| 2026-05-08 02:06 | 34.19668 | -84.32350 | 15707 ft | 427 kts | 20° |
| 2026-05-08 02:07 | 34.22237 | -84.30624 | 16164 ft | 430 kts | 19° |
| 2026-05-08 02:07 | 34.24860 | -84.28861 | 16601 ft | 433 kts | 19° |
| 2026-05-08 02:07 | 34.27557 | -84.27107 | 17039 ft | 433 kts | 15° |
| 2026-05-08 02:07 | 34.30307 | -84.25893 | 17415 ft | 422 kts | 3° |
| 2026-05-08 02:08 | 34.33159 | -84.25127 | 17827 ft | 419 kts | 359° |
| 2026-05-08 02:08 | 34.36026 | -84.24461 | 18250 ft | 420 kts | 359° |
| 2026-05-08 02:08 | 34.38911 | -84.23801 | 18637 ft | 423 kts | 359° |
| 2026-05-08 02:08 | 34.41812 | -84.23133 | 19001 ft | 426 kts | 359° |
| 2026-05-08 02:09 | 34.44737 | -84.22456 | 19378 ft | 429 kts | 359° |
| 2026-05-08 02:09 | 34.47673 | -84.21771 | 19759 ft | 432 kts | 359° |
| 2026-05-08 02:09 | 34.50636 | -84.21077 | 20074 ft | 435 kts | 359° |
| 2026-05-08 02:09 | 34.53619 | -84.20377 | 20429 ft | 438 kts | 360° |
| 2026-05-08 02:10 | 34.56613 | -84.19672 | 20768 ft | 440 kts | 359° |
| 2026-05-08 02:10 | 34.59628 | -84.18962 | 21113 ft | 443 kts | 360° |
| 2026-05-08 02:10 | 34.62655 | -84.18244 | 21449 ft | 445 kts | 360° |
| 2026-05-08 02:10 | 34.65700 | -84.17530 | 21809 ft | 446 kts | 360° |
| 2026-05-08 02:11 | 34.68759 | -84.16813 | 22150 ft | 449 kts | 360° |
| 2026-05-08 02:11 | 34.71834 | -84.16089 | 22510 ft | 450 kts | 0° |
| 2026-05-08 02:11 | 34.74920 | -84.15363 | 22772 ft | 453 kts | 360° |
| 2026-05-08 02:11 | 34.78024 | -84.14579 | 23027 ft | 459 kts | 1° |
| 2026-05-08 02:12 | 34.81156 | -84.13717 | 23311 ft | 462 kts | 2° |
| 2026-05-08 02:12 | 34.84296 | -84.12837 | 23626 ft | 464 kts | 2° |
| 2026-05-08 02:12 | 34.87445 | -84.11955 | 23933 ft | 466 kts | 2° |
| 2026-05-08 02:12 | 34.90619 | -84.11069 | 24189 ft | 469 kts | 2° |
| 2026-05-08 02:13 | 34.93806 | -84.10188 | 24507 ft | 471 kts | 2° |
| 2026-05-08 02:13 | 34.97011 | -84.09295 | 24776 ft | 473 kts | 2° |
| 2026-05-08 02:13 | 35.00225 | -84.08397 | 25061 ft | 475 kts | 2° |
| 2026-05-08 02:13 | 35.03451 | -84.07494 | 25355 ft | 477 kts | 2° |
| 2026-05-08 02:14 | 35.06701 | -84.06587 | 25594 ft | 480 kts | 2° |
| 2026-05-08 02:14 | 35.09968 | -84.05674 | 25877 ft | 483 kts | 1° |
| 2026-05-08 02:14 | 35.13251 | -84.04754 | 26175 ft | 485 kts | 1° |
| 2026-05-08 02:14 | 35.16538 | -84.03835 | 26468 ft | 486 kts | 1° |
| 2026-05-08 02:15 | 35.19847 | -84.02909 | 26715 ft | 489 kts | 1° |
| 2026-05-08 02:15 | 35.23169 | -84.01979 | 26981 ft | 491 kts | 1° |
| 2026-05-08 02:15 | 35.26506 | -84.01037 | 27293 ft | 492 kts | 1° |
| 2026-05-08 02:15 | 35.29844 | -84.00092 | 27595 ft | 493 kts | 360° |
| 2026-05-08 02:16 | 35.33200 | -83.99147 | 27834 ft | 495 kts | 360° |
| 2026-05-08 02:16 | 35.36573 | -83.98197 | 27992 ft | 499 kts | 359° |
| 2026-05-08 02:16 | 35.39968 | -83.97246 | 28165 ft | 502 kts | 360° |
| 2026-05-08 02:16 | 35.43380 | -83.96296 | 28386 ft | 503 kts | 359° |
| 2026-05-08 02:17 | 35.46803 | -83.95339 | 28548 ft | 505 kts | 359° |
| 2026-05-08 02:17 | 35.50225 | -83.94368 | 28856 ft | 505 kts | 359° |
| 2026-05-08 02:17 | 35.53656 | -83.93403 | 29068 ft | 506 kts | 358° |
| 2026-05-08 02:17 | 35.57084 | -83.92428 | 29288 ft | 507 kts | 358° |
| 2026-05-08 02:18 | 35.64021 | -83.90449 | 29722 ft | 512 kts | 357° |
| 2026-05-08 02:18 | 35.67476 | -83.89472 | 30251 ft | 507 kts | 357° |
| 2026-05-08 02:18 | 35.70905 | -83.88499 | 30674 ft | 508 kts | 356° |
| 2026-05-08 02:19 | 35.74345 | -83.87543 | 31059 ft | 507 kts | 356° |
| 2026-05-08 02:19 | 35.77771 | -83.86531 | 31349 ft | 511 kts | 0° |
| 2026-05-08 02:19 | 35.81184 | -83.85003 | 31466 ft | 538 kts | 10° |
| 2026-05-08 02:19 | 35.84570 | -83.82936 | 31806 ft | 545 kts | 14° |
| 2026-05-08 02:20 | 35.87893 | -83.80699 | 32224 ft | 545 kts | 15° |
| 2026-05-08 02:20 | 35.91152 | -83.78431 | 32438 ft | 546 kts | 15° |
| 2026-05-08 02:20 | 35.94459 | -83.76110 | 32617 ft | 547 kts | 15° |
| 2026-05-08 02:20 | 35.97766 | -83.73791 | 32849 ft | 547 kts | 15° |
| 2026-05-08 02:21 | 36.01078 | -83.71478 | 33090 ft | 546 kts | 15° |
| 2026-05-08 02:21 | 36.04380 | -83.69183 | 33349 ft | 545 kts | 15° |
| 2026-05-08 02:21 | 36.07688 | -83.66894 | 33537 ft | 545 kts | 15° |
| 2026-05-08 02:21 | 36.11007 | -83.64606 | 33704 ft | 546 kts | 15° |
| 2026-05-08 02:22 | 36.14320 | -83.62321 | 33933 ft | 545 kts | 15° |
| 2026-05-08 02:22 | 36.17630 | -83.60038 | 34168 ft | 544 kts | 15° |
| 2026-05-08 02:22 | 36.20933 | -83.57756 | 34356 ft | 543 kts | 15° |
| 2026-05-08 02:22 | 36.24236 | -83.55473 | 34498 ft | 544 kts | 15° |
| 2026-05-08 02:23 | 36.27532 | -83.53191 | 34792 ft | 541 kts | 15° |
| 2026-05-08 02:23 | 36.30809 | -83.50912 | 35113 ft | 538 kts | 15° |
| 2026-05-08 02:23 | 36.34063 | -83.48646 | 35386 ft | 535 kts | 15° |
| 2026-05-08 02:23 | 36.37306 | -83.46389 | 35579 ft | 534 kts | 15° |
| 2026-05-08 02:24 | 36.40550 | -83.44134 | 35790 ft | 533 kts | 15° |
| 2026-05-08 02:24 | 36.43777 | -83.41891 | 35999 ft | 531 kts | 15° |
| 2026-05-08 02:24 | 36.50236 | -83.37400 | 36162 ft | 533 kts | 15° |
| 2026-05-08 02:25 | 36.53474 | -83.35143 | 36309 ft | 533 kts | 15° |
| 2026-05-08 02:25 | 36.56708 | -83.32882 | 36474 ft | 533 kts | 15° |
| 2026-05-08 02:25 | 36.59940 | -83.30622 | 36608 ft | 533 kts | 15° |
| 2026-05-08 02:25 | 36.63162 | -83.28362 | 36793 ft | 531 kts | 15° |
| 2026-05-08 02:26 | 36.66372 | -83.26105 | 37019 ft | 529 kts | 15° |
| 2026-05-08 02:26 | 36.69582 | -83.23854 | 37062 ft | 530 kts | 15° |
| 2026-05-08 02:26 | 36.76050 | -83.19323 | 37064 ft | 536 kts | 15° |
| 2026-05-08 02:27 | 36.82566 | -83.14742 | 37073 ft | 539 kts | 16° |
| 2026-05-08 02:27 | 36.89026 | -83.10174 | 37070 ft | 537 kts | 16° |
| 2026-05-08 02:28 | 36.95313 | -83.04944 | 37078 ft | 561 kts | 32° |
| 2026-05-08 02:28 | 36.98044 | -83.01355 | 37072 ft | 573 kts | 39° |
| 2026-05-08 02:28 | 37.00627 | -82.97529 | 37078 ft | 578 kts | 41° |
| 2026-05-08 02:29 | 37.05590 | -82.89573 | 37074 ft | 581 kts | 44° |
| 2026-05-08 02:29 | 37.10463 | -82.81482 | 37073 ft | 582 kts | 44° |
| 2026-05-08 02:30 | 37.15288 | -82.73320 | 37072 ft | 583 kts | 45° |
| 2026-05-08 02:30 | 37.20121 | -82.65163 | 37075 ft | 582 kts | 45° |
| 2026-05-08 02:31 | 37.24956 | -82.57016 | 37070 ft | 582 kts | 45° |
| 2026-05-08 02:31 | 37.29784 | -82.48856 | 37065 ft | 581 kts | 45° |
| 2026-05-08 02:32 | 37.34616 | -82.40718 | 37064 ft | 581 kts | 45° |
| 2026-05-08 02:32 | 37.39423 | -82.32565 | 37064 ft | 580 kts | 45° |
| 2026-05-08 02:33 | 37.44216 | -82.24408 | 37061 ft | 579 kts | 46° |
| 2026-05-08 02:33 | 37.49018 | -82.16363 | 37065 ft | 572 kts | 39° |
| 2026-05-08 02:34 | 37.51832 | -82.12921 | 37065 ft | 555 kts | 27° |
| 2026-05-08 02:34 | 37.54877 | -82.09993 | 37054 ft | 549 kts | 25° |
| 2026-05-08 02:34 | 37.61119 | -82.04487 | 37049 ft | 546 kts | 22° |
| 2026-05-08 02:35 | 37.67420 | -81.99144 | 37061 ft | 545 kts | 22° |
| 2026-05-08 02:35 | 37.73709 | -81.93782 | 37053 ft | 545 kts | 22° |
| 2026-05-08 02:36 | 37.79991 | -81.88389 | 37050 ft | 546 kts | 23° |
| 2026-05-08 02:36 | 37.86263 | -81.82975 | 37047 ft | 546 kts | 23° |
| 2026-05-08 02:37 | 37.92539 | -81.77540 | 37047 ft | 547 kts | 23° |
| 2026-05-08 02:37 | 37.98809 | -81.72097 | 37043 ft | 546 kts | 23° |
| 2026-05-08 02:38 | 38.05072 | -81.66648 | 37051 ft | 546 kts | 23° |
| 2026-05-08 02:38 | 38.11343 | -81.61189 | 37042 ft | 547 kts | 23° |
| 2026-05-08 02:39 | 38.17605 | -81.55707 | 37039 ft | 546 kts | 23° |
| 2026-05-08 02:39 | 38.23866 | -81.50227 | 37025 ft | 546 kts | 23° |
| 2026-05-08 02:40 | 38.30117 | -81.44739 | 37027 ft | 546 kts | 23° |
| 2026-05-08 02:40 | 38.36377 | -81.39244 | 37026 ft | 547 kts | 23° |
| 2026-05-08 02:41 | 38.42586 | -81.33778 | 37027 ft | 546 kts | 24° |
| 2026-05-08 02:41 | 38.48879 | -81.28225 | 37024 ft | 546 kts | 24° |
| 2026-05-08 02:42 | 38.55124 | -81.22701 | 37026 ft | 546 kts | 24° |
| 2026-05-08 02:42 | 38.61373 | -81.17159 | 37026 ft | 548 kts | 24° |
| 2026-05-08 02:43 | 38.67629 | -81.11593 | 37026 ft | 548 kts | 24° |
| 2026-05-08 02:43 | 38.73847 | -81.06056 | 37024 ft | 548 kts | 24° |
| 2026-05-08 02:44 | 38.80100 | -81.00480 | 37028 ft | 548 kts | 24° |
| 2026-05-08 02:44 | 38.86349 | -80.94893 | 37026 ft | 547 kts | 24° |
| 2026-05-08 02:45 | 38.92593 | -80.89297 | 37028 ft | 548 kts | 24° |
| 2026-05-08 02:45 | 38.98831 | -80.83685 | 37026 ft | 548 kts | 26° |
| 2026-05-08 02:46 | 39.01783 | -80.80496 | 37027 ft | 561 kts | 36° |
| 2026-05-08 02:46 | 39.04524 | -80.76900 | 37026 ft | 564 kts | 38° |
| 2026-05-08 02:46 | 39.09845 | -80.69429 | 37018 ft | 568 kts | 40° |
| 2026-05-08 02:47 | 39.15091 | -80.61796 | 37019 ft | 569 kts | 41° |
| 2026-05-08 02:47 | 39.19450 | -80.55448 | 37018 ft | 569 kts | 40° |
| 2026-05-08 02:48 | 39.24699 | -80.47834 | 37016 ft | 568 kts | 40° |
| 2026-05-08 02:48 | 39.29954 | -80.40224 | 37009 ft | 568 kts | 41° |
| 2026-05-08 02:49 | 39.35210 | -80.32596 | 37007 ft | 569 kts | 41° |
| 2026-05-08 02:49 | 39.40462 | -80.24944 | 37009 ft | 569 kts | 41° |
| 2026-05-08 02:50 | 39.45700 | -80.17295 | 37007 ft | 568 kts | 41° |
| 2026-05-08 02:50 | 39.50942 | -80.09633 | 37009 ft | 568 kts | 41° |
| 2026-05-08 02:51 | 39.56178 | -80.01963 | 37008 ft | 568 kts | 41° |
| 2026-05-08 02:51 | 39.61407 | -79.94279 | 37008 ft | 569 kts | 42° |
| 2026-05-08 02:52 | 39.66640 | -79.86569 | 37007 ft | 569 kts | 42° |
| 2026-05-08 02:52 | 39.71870 | -79.78847 | 37010 ft | 569 kts | 42° |
| 2026-05-08 02:53 | 39.77090 | -79.71120 | 37006 ft | 569 kts | 42° |
| 2026-05-08 02:53 | 39.82301 | -79.63382 | 37009 ft | 569 kts | 42° |
| 2026-05-08 02:54 | 39.87507 | -79.55625 | 37015 ft | 569 kts | 42° |
| 2026-05-08 02:54 | 39.92716 | -79.47864 | 37018 ft | 568 kts | 42° |
| 2026-05-08 02:55 | 40.00517 | -79.36204 | 37006 ft | 569 kts | 42° |
| 2026-05-08 02:56 | 40.05706 | -79.28411 | 37006 ft | 568 kts | 43° |
| 2026-05-08 02:56 | 40.10875 | -79.20632 | 36999 ft | 567 kts | 43° |
| 2026-05-08 02:57 | 40.16056 | -79.12852 | 36992 ft | 567 kts | 42° |
| 2026-05-08 02:57 | 40.21274 | -79.05132 | 36990 ft | 566 kts | 42° |
| 2026-05-08 02:58 | 40.26502 | -78.97413 | 36972 ft | 566 kts | 42° |
| 2026-05-08 02:58 | 40.31716 | -78.89688 | 36963 ft | 566 kts | 42° |
| 2026-05-08 02:59 | 40.36892 | -78.81984 | 36950 ft | 567 kts | 42° |
| 2026-05-08 02:59 | 40.42092 | -78.74223 | 36955 ft | 566 kts | 42° |
| 2026-05-08 03:00 | 40.47292 | -78.66446 | 36962 ft | 567 kts | 43° |
| 2026-05-08 03:00 | 40.52485 | -78.58657 | 36960 ft | 566 kts | 43° |
| 2026-05-08 03:01 | 40.57672 | -78.50856 | 36962 ft | 568 kts | 43° |
| 2026-05-08 03:01 | 40.62860 | -78.43028 | 36961 ft | 567 kts | 43° |
| 2026-05-08 03:02 | 40.68043 | -78.35190 | 36948 ft | 567 kts | 43° |
| 2026-05-08 03:02 | 40.73208 | -78.27333 | 36954 ft | 567 kts | 43° |
| 2026-05-08 03:03 | 40.78384 | -78.19484 | 36952 ft | 567 kts | 43° |
| 2026-05-08 03:03 | 40.83551 | -78.11623 | 36951 ft | 567 kts | 43° |
| 2026-05-08 03:04 | 40.88712 | -78.03744 | 36960 ft | 567 kts | 43° |
| 2026-05-08 03:04 | 40.93371 | -77.95282 | 36962 ft | 573 kts | 53° |
| 2026-05-08 03:05 | 40.97524 | -77.86262 | 36961 ft | 575 kts | 56° |
| 2026-05-08 03:05 | 41.01561 | -77.77132 | 36964 ft | 575 kts | 56° |
| 2026-05-08 03:06 | 41.05583 | -77.67989 | 36963 ft | 574 kts | 56° |
| 2026-05-08 03:06 | 41.09614 | -77.58849 | 36954 ft | 574 kts | 56° |
| 2026-05-08 03:07 | 41.13646 | -77.49714 | 36942 ft | 574 kts | 56° |
| 2026-05-08 03:07 | 41.17674 | -77.40569 | 36935 ft | 574 kts | 56° |
| 2026-05-08 03:08 | 41.21689 | -77.31411 | 36940 ft | 571 kts | 57° |
| 2026-05-08 03:08 | 41.25663 | -77.22320 | 36946 ft | 567 kts | 57° |
| 2026-05-08 03:09 | 41.29581 | -77.13332 | 36953 ft | 565 kts | 57° |
| 2026-05-08 03:09 | 41.33517 | -77.04278 | 36953 ft | 566 kts | 57° |
| 2026-05-08 03:10 | 41.37447 | -76.95202 | 36954 ft | 566 kts | 57° |
| 2026-05-08 03:10 | 41.41370 | -76.86120 | 36952 ft | 566 kts | 58° |
| 2026-05-08 03:11 | 41.45294 | -76.77020 | 36944 ft | 567 kts | 58° |
| 2026-05-08 03:11 | 41.49214 | -76.67897 | 36946 ft | 567 kts | 58° |
| 2026-05-08 03:12 | 41.53120 | -76.58766 | 36944 ft | 566 kts | 58° |
| 2026-05-08 03:12 | 41.57017 | -76.49628 | 36940 ft | 567 kts | 58° |
| 2026-05-08 03:13 | 41.60915 | -76.40469 | 36935 ft | 567 kts | 59° |
| 2026-05-08 03:13 | 41.64808 | -76.31296 | 36929 ft | 567 kts | 59° |
| 2026-05-08 03:14 | 41.68692 | -76.22113 | 36909 ft | 568 kts | 59° |
| 2026-05-08 03:14 | 41.72571 | -76.12908 | 36913 ft | 568 kts | 59° |
| 2026-05-08 03:15 | 41.76445 | -76.03690 | 36920 ft | 567 kts | 59° |
| 2026-05-08 03:15 | 41.80302 | -75.94473 | 36917 ft | 567 kts | 60° |
| 2026-05-08 03:16 | 41.84158 | -75.85246 | 36903 ft | 567 kts | 60° |
| 2026-05-08 03:16 | 41.88009 | -75.76008 | 36901 ft | 568 kts | 60° |
| 2026-05-08 03:17 | 41.91857 | -75.66738 | 36902 ft | 569 kts | 60° |
| 2026-05-08 03:17 | 41.95698 | -75.57455 | 36905 ft | 568 kts | 60° |
| 2026-05-08 03:18 | 41.99524 | -75.48161 | 36908 ft | 569 kts | 60° |
| 2026-05-08 03:18 | 42.03323 | -75.38924 | 36911 ft | 568 kts | 60° |
| 2026-05-08 03:19 | 42.07182 | -75.29671 | 36911 ft | 566 kts | 57° |
| 2026-05-08 03:19 | 42.11441 | -75.20776 | 36912 ft | 565 kts | 54° |
| 2026-05-08 03:20 | 42.15833 | -75.12003 | 36909 ft | 565 kts | 54° |
| 2026-05-08 03:20 | 42.20202 | -75.03185 | 36908 ft | 566 kts | 55° |
| 2026-05-08 03:21 | 42.24525 | -74.94318 | 36919 ft | 566 kts | 55° |
| 2026-05-08 03:21 | 42.28828 | -74.85420 | 36913 ft | 566 kts | 55° |
| 2026-05-08 03:22 | 42.33121 | -74.76508 | 36915 ft | 566 kts | 55° |
| 2026-05-08 03:22 | 42.37421 | -74.67575 | 36907 ft | 567 kts | 55° |
| 2026-05-08 03:23 | 42.41716 | -74.58627 | 36907 ft | 567 kts | 55° |
| 2026-05-08 03:23 | 42.46007 | -74.49655 | 36911 ft | 568 kts | 55° |
| 2026-05-08 03:24 | 42.50295 | -74.40662 | 36903 ft | 569 kts | 56° |
| 2026-05-08 03:24 | 42.54576 | -74.31655 | 36902 ft | 569 kts | 56° |
| 2026-05-08 03:25 | 42.58828 | -74.22688 | 36908 ft | 569 kts | 56° |
| 2026-05-08 03:25 | 42.63099 | -74.13648 | 36911 ft | 569 kts | 56° |
| 2026-05-08 03:26 | 42.67363 | -74.04599 | 36915 ft | 568 kts | 56° |
| 2026-05-08 03:26 | 42.70925 | -73.97017 | 36907 ft | 568 kts | 56° |